Time;durP1;ratioP1;P1;durP2;ratioP2;P2;SDS_P1;SDS_P2;PMS_P1;PMS_P2;Temp;Humidity;BMP_temperature;BMP_pressure;BME280_temperature;BME280_humidity;BME280_pressure;Samples;Min_cycle;Max_cycle;Signal;HPM_P1;HPM_P2
2023/03/30 00:01:37;;;;;;;4.60;2.17;;;12.40;99.90;;;;;;5080769;28;20079;-78
2023/03/30 00:04:03;;;;;;;5.40;2.45;;;12.40;99.90;;;;;;4372440;28;10000426;-78
2023/03/30 00:06:30;;;;;;;6.93;1.67;;;12.50;99.90;;;;;;5077350;28;20052;-78
2023/03/30 00:08:58;;;;;;;5.28;2.08;;;12.40;99.90;;;;;;5066400;28;20377;-78
2023/03/30 00:11:25;;;;;;;5.63;2.83;;;12.40;99.90;;;;;;5030405;28;20052;-78
2023/03/30 00:13:52;;;;;;;5.20;2.45;;;12.40;99.90;;;;;;5029516;28;20139;-78
2023/03/30 00:16:20;;;;;;;5.18;1.85;;;12.40;99.90;;;;;;5043756;28;20471;-79
2023/03/30 00:18:47;;;;;;;6.72;2.22;;;12.40;99.90;;;;;;5047305;28;20142;-78
2023/03/30 00:21:16;;;;;;;4.75;1.77;;;12.40;99.90;;;;;;5045230;28;20138;-78
2023/03/30 00:23:46;;;;;;;5.90;1.73;;;12.40;99.90;;;;;;5064146;28;20486;-78
2023/03/30 00:26:14;;;;;;;6.40;1.70;;;12.40;99.90;;;;;;5031108;28;20450;-78
2023/03/30 00:28:41;;;;;;;6.75;1.83;;;12.40;99.90;;;;;;5043315;28;20121;-80
2023/03/30 00:31:09;;;;;;;4.95;1.85;;;12.40;99.90;;;;;;5063264;28;20348;-78
2023/03/30 00:33:36;;;;;;;5.70;1.75;;;12.40;99.90;;;;;;5063393;28;20079;-78
2023/03/30 00:36:11;;;;;;;5.40;1.77;;;12.40;99.90;;;;;;5078495;28;20055;-78
2023/03/30 00:38:39;;;;;;;8.85;2.63;;;12.40;99.90;;;;;;5047346;28;20051;-78
2023/03/30 00:41:06;;;;;;;6.95;1.75;;;12.30;99.90;;;;;;5030687;28;20079;-78
2023/03/30 00:43:33;;;;;;;7.45;2.15;;;12.30;99.90;;;;;;5029808;28;20471;-78
2023/03/30 00:46:00;;;;;;;6.07;2.25;;;12.30;99.90;;;;;;5063344;28;20510;-78
2023/03/30 00:48:39;;;;;;;5.32;2.08;;;12.30;99.90;;;;;;5062971;28;20117;-77
2023/03/30 00:51:09;;;;;;;4.57;1.80;;;12.30;99.90;;;;;;5062236;28;20051;-78
2023/03/30 00:53:44;;;;;;;8.85;2.63;;;12.30;99.90;;;;;;5060276;28;20182;-78
2023/03/30 00:56:12;;;;;;;5.78;2.90;;;12.20;99.90;;;;;;5063331;28;20151;-78
2023/03/30 00:58:39;;;;;;;7.13;2.10;;;12.20;99.90;;;;;;5044993;28;20124;-78
2023/03/30 01:01:09;;;;;;;5.70;1.92;;;12.20;99.90;;;;;;5045840;28;20837;-78
2023/03/30 01:03:44;;;;;;;7.60;2.35;;;12.20;99.90;;;;;;5045685;28;20137;-78
2023/03/30 01:06:12;;;;;;;5.30;1.65;;;12.10;99.90;;;;;;5061326;28;20266;-78
2023/03/30 01:08:41;;;;;;;5.00;2.03;;;12.10;99.90;;;;;;5045787;28;20246;-78
2023/03/30 01:11:08;;;;;;;4.20;1.80;;;12.10;99.90;;;;;;5045542;28;20499;-78
2023/03/30 01:13:39;;;;;;;5.00;2.05;;;12.10;99.90;;;;;;5045318;28;20131;-78
2023/03/30 01:16:17;;;;;;;6.18;1.88;;;12.10;99.90;;;;;;5058196;28;20471;-78
2023/03/30 01:18:57;;;;;;;7.57;2.08;;;12.20;99.90;;;;;;5072560;28;20050;-78
2023/03/30 01:21:58;;;;;;;3.67;1.40;;;12.20;99.90;;;;;;5041508;28;20036;-78
2023/03/30 01:24:47;;;;;;;5.57;1.90;;;12.20;99.90;;;;;;5061516;28;20430;-78
2023/03/30 01:27:18;;;;;;;6.05;1.55;;;12.20;99.90;;;;;;5060529;28;20063;-78
2023/03/30 01:30:55;;;;;;;4.85;2.00;;;12.10;99.90;;;;;;5079392;28;20072;-78
2023/03/30 01:33:34;;;;;;;4.82;1.70;;;12.10;99.90;;;;;;4990884;28;20046;-79
2023/03/30 01:36:35;;;;;;;3.45;1.17;;;12.10;99.90;;;;;;5017728;28;20140;-78
2023/03/30 01:39:38;;;;;;;4.57;1.27;;;12.10;99.90;;;;;;5032742;28;20561;-78
2023/03/30 01:42:31;;;;;;;4.72;1.98;;;12.10;99.90;;;;;;5051259;28;21008;-79
2023/03/30 01:45:24;;;;;;;5.90;1.88;;;12.10;99.90;;;;;;5047050;28;20083;-79
2023/03/30 01:47:57;;;;;;;4.90;1.63;;;12.10;99.90;;;;;;5026643;28;20043;-78
2023/03/30 01:50:26;;;;;;;7.57;2.30;;;12.10;99.90;;;;;;5046960;28;20375;-78
2023/03/30 01:53:14;;;;;;;7.45;2.42;;;12.10;99.90;;;;;;5046626;28;20084;-79
2023/03/30 01:55:44;;;;;;;10.35;2.72;;;12.10;99.90;;;;;;5051575;28;20048;-79
2023/03/30 01:58:36;;;;;;;6.00;2.22;;;12.10;99.90;;;;;;5065023;28;20052;-79
2023/03/30 02:01:03;;;;;;;7.75;2.67;;;12.10;99.90;;;;;;4366915;28;10000745;-78
2023/03/30 02:03:31;;;;;;;9.10;2.78;;;12.10;99.90;;;;;;5041582;28;20039;-79
2023/03/30 02:06:16;;;;;;;9.38;2.97;;;12.10;99.90;;;;;;5066272;28;20098;-78
2023/03/30 02:08:42;;;;;;;9.95;3.03;;;12.00;99.90;;;;;;5047821;28;20051;-78
2023/03/30 02:11:10;;;;;;;7.97;3.15;;;12.00;99.90;;;;;;5082559;28;20149;-79
2023/03/30 02:13:37;;;;;;;10.30;3.20;;;12.00;99.90;;;;;;5066845;28;20079;-79
2023/03/30 02:16:08;;;;;;;8.82;2.80;;;11.90;99.90;;;;;;5033740;28;20043;-78
2023/03/30 02:18:37;;;;;;;9.00;2.38;;;11.90;99.90;;;;;;5048428;28;20082;-78
2023/03/30 02:21:04;;;;;;;7.00;2.13;;;11.80;99.90;;;;;;5066223;28;20504;-78
2023/03/30 02:23:34;;;;;;;9.93;3.83;;;11.80;99.90;;;;;;5050124;28;20126;-78
2023/03/30 02:26:01;;;;;;;9.18;2.80;;;11.70;99.90;;;;;;5064821;28;20044;-78
2023/03/30 02:28:27;;;;;;;10.50;3.30;;;11.70;99.90;;;;;;5051211;28;20055;-79
2023/03/30 02:30:54;;;;;;;7.03;2.22;;;11.70;99.90;;;;;;5050552;28;20056;-78
2023/03/30 02:33:37;;;;;;;7.07;2.40;;;11.70;99.90;;;;;;5050651;28;20672;-78
2023/03/30 02:36:42;;;;;;;6.63;2.10;;;11.60;99.90;;;;;;5049804;28;20063;-78
2023/03/30 02:39:26;;;;;;;7.32;2.42;;;11.70;99.90;;;;;;5071211;28;20050;-78
2023/03/30 02:42:13;;;;;;;4.97;2.30;;;11.80;99.90;;;;;;5070989;28;20058;-78
2023/03/30 02:44:52;;;;;;;5.65;2.00;;;11.80;99.90;;;;;;5054480;28;20123;-78
2023/03/30 02:47:57;;;;;;;3.47;1.40;;;11.80;99.90;;;;;;5071054;28;20044;-78
2023/03/30 02:50:41;;;;;;;6.80;2.65;;;11.80;99.90;;;;;;5087536;28;20062;-79
2023/03/30 02:53:30;;;;;;;5.88;2.03;;;11.80;99.90;;;;;;5069891;28;20430;-79
2023/03/30 02:56:06;;;;;;;6.82;2.63;;;11.90;99.90;;;;;;5054251;28;20086;-78
2023/03/30 02:58:49;;;;;;;4.65;1.88;;;11.90;99.90;;;;;;5087591;28;20481;-78
2023/03/30 03:01:21;;;;;;;4.40;1.73;;;11.90;99.90;;;;;;5070649;28;20077;-78
2023/03/30 03:03:48;;;;;;;5.57;2.03;;;11.80;99.90;;;;;;5070510;28;20109;-78
2023/03/30 03:06:15;;;;;;;3.13;1.67;;;11.70;99.90;;;;;;5052667;28;20066;-78
2023/03/30 03:08:43;;;;;;;6.03;1.67;;;11.70;99.90;;;;;;5055632;28;20044;-78
2023/03/30 03:11:10;;;;;;;5.95;2.00;;;11.70;99.90;;;;;;5049333;28;20044;-77
2023/03/30 03:13:37;;;;;;;5.43;1.98;;;11.70;99.90;;;;;;5045339;28;20059;-78
2023/03/30 03:16:04;;;;;;;4.45;1.80;;;11.60;99.90;;;;;;5067373;28;20040;-78
2023/03/30 03:18:31;;;;;;;4.90;2.22;;;11.60;99.90;;;;;;5070600;28;20052;-78
2023/03/30 03:20:58;;;;;;;3.70;1.65;;;11.60;99.90;;;;;;5083684;28;20135;-79
2023/03/30 03:23:25;;;;;;;4.25;1.83;;;11.50;99.90;;;;;;5068295;28;20634;-78
2023/03/30 03:25:52;;;;;;;6.72;2.08;;;11.50;99.90;;;;;;5069611;28;20138;-79
2023/03/30 03:28:19;;;;;;;4.72;1.67;;;11.40;99.90;;;;;;5055527;28;20522;-78
2023/03/30 03:30:47;;;;;;;7.88;2.13;;;11.30;99.90;;;;;;5083382;28;20044;-78
2023/03/30 03:33:14;;;;;;;5.15;1.95;;;11.30;99.90;;;;;;5049982;28;20076;-78
2023/03/30 03:35:44;;;;;;;8.52;1.90;;;11.30;99.90;;;;;;5083428;28;20040;-78
2023/03/30 03:38:11;;;;;;;7.97;2.10;;;11.20;99.90;;;;;;5086207;28;20044;-78
2023/03/30 03:40:39;;;;;;;6.30;1.73;;;11.20;99.90;;;;;;5049598;28;20513;-78
2023/03/30 03:43:06;;;;;;;5.53;1.85;;;11.10;99.90;;;;;;5085334;28;20048;-78
2023/03/30 03:45:33;;;;;;;2.92;1.10;;;11.10;99.90;;;;;;5070253;28;20056;-79
2023/03/30 03:47:59;;;;;;;2.97;1.20;;;11.10;99.90;;;;;;5051805;28;20098;-78
2023/03/30 03:50:26;;;;;;;5.57;1.48;;;11.10;99.90;;;;;;5085044;28;20051;-78
2023/03/30 03:52:53;;;;;;;5.80;1.50;;;11.00;99.90;;;;;;5100737;28;20511;-78
2023/03/30 03:55:20;;;;;;;5.40;1.70;;;11.00;99.90;;;;;;5065724;28;20787;-79
2023/03/30 03:57:48;;;;;;;3.20;1.20;;;11.00;99.90;;;;;;5083303;28;20048;-78
2023/03/30 04:00:18;;;;;;;3.05;1.10;;;11.00;99.90;;;;;;5053462;28;20058;-79
2023/03/30 04:02:44;;;;;;;3.60;1.73;;;10.90;99.90;;;;;;5067984;28;20196;-79
2023/03/30 04:05:11;;;;;;;3.30;1.65;;;10.90;99.90;;;;;;5068021;28;20044;-78
2023/03/30 04:07:38;;;;;;;3.38;1.25;;;10.90;99.90;;;;;;5048355;28;20082;-78
2023/03/30 04:10:06;;;;;;;5.18;1.40;;;10.90;99.90;;;;;;5069125;28;20590;-78
2023/03/30 04:12:33;;;;;;;3.83;1.52;;;10.90;99.90;;;;;;5065766;28;20125;-78
2023/03/30 04:15:00;;;;;;;4.07;1.33;;;10.90;99.90;;;;;;5037727;28;20052;-78
2023/03/30 04:17:26;;;;;;;5.10;1.58;;;10.90;99.90;;;;;;5034684;28;20395;-79
2023/03/30 04:19:54;;;;;;;7.25;1.92;;;10.90;99.90;;;;;;5063663;28;20130;-78
2023/03/30 04:22:24;;;;;;;6.50;1.70;;;10.90;99.90;;;;;;5037478;28;20229;-78
2023/03/30 04:24:51;;;;;;;6.63;2.28;;;10.90;99.90;;;;;;5038234;28;20052;-79
2023/03/30 04:27:18;;;;;;;4.15;1.48;;;10.90;99.90;;;;;;5071070;28;20040;-78
2023/03/30 04:29:45;;;;;;;7.28;1.80;;;10.90;99.90;;;;;;5070461;28;20149;-78
2023/03/30 04:32:12;;;;;;;2.80;1.00;;;10.80;99.90;;;;;;5070705;28;20109;-78
2023/03/30 04:34:48;;;;;;;4.40;1.52;;;10.80;99.90;;;;;;5070903;28;20055;-78
2023/03/30 04:37:17;;;;;;;3.25;1.30;;;10.70;99.90;;;;;;5050267;28;20048;-78
2023/03/30 04:39:44;;;;;;;3.85;1.08;;;10.70;99.90;;;;;;5034274;28;20048;-78
2023/03/30 04:42:13;;;;;;;4.43;1.38;;;10.70;99.90;;;;;;5034723;28;20044;-77
2023/03/30 04:44:39;;;;;;;4.53;1.55;;;10.60;99.90;;;;;;5069966;28;20084;-78
2023/03/30 04:47:06;;;;;;;3.63;1.40;;;10.50;99.90;;;;;;5068347;28;20075;-78
2023/03/30 04:49:33;;;;;;;2.83;1.15;;;10.50;99.90;;;;;;5083967;28;20587;-78
2023/03/30 04:52:00;;;;;;;4.30;1.77;;;10.50;99.90;;;;;;5058179;28;20056;-78
2023/03/30 04:54:27;;;;;;;4.05;1.38;;;10.40;99.90;;;;;;5073712;28;20263;-77
2023/03/30 04:56:56;;;;;;;5.40;2.10;;;10.40;99.90;;;;;;5031744;28;20055;-78
2023/03/30 04:59:23;;;;;;;3.53;1.13;;;10.40;99.90;;;;;;5075141;28;20051;-78
2023/03/30 05:01:50;;;;;;;4.40;1.95;;;10.30;99.90;;;;;;5061143;28;20127;-78
2023/03/30 05:04:16;;;;;;;3.78;1.48;;;10.30;99.90;;;;;;5072020;28;20162;-78
2023/03/30 05:06:43;;;;;;;3.67;1.60;;;10.30;99.90;;;;;;5078455;28;20790;-78
2023/03/30 05:09:10;;;;;;;5.07;1.65;;;10.30;99.90;;;;;;5079818;28;20127;-77
2023/03/30 05:11:37;;;;;;;4.75;1.42;;;10.30;99.90;;;;;;5028411;28;20054;-77
2023/03/30 05:14:03;;;;;;;3.95;1.75;;;10.30;99.90;;;;;;5030092;28;20223;-76
2023/03/30 05:16:30;;;;;;;4.93;1.23;;;10.30;99.90;;;;;;5045707;28;20128;-77
2023/03/30 05:18:57;;;;;;;7.63;2.30;;;10.40;99.90;;;;;;5075928;28;20055;-77
2023/03/30 05:21:24;;;;;;;8.18;2.80;;;10.40;99.90;;;;;;5059745;28;20054;-79
2023/03/30 05:23:51;;;;;;;4.53;1.48;;;10.40;99.90;;;;;;5059623;28;20159;-77
2023/03/30 05:26:18;;;;;;;6.57;2.05;;;10.50;99.90;;;;;;5063401;28;20135;-77
2023/03/30 05:28:46;;;;;;;4.72;1.65;;;10.50;99.90;;;;;;5035115;28;20075;-79
2023/03/30 05:31:13;;;;;;;4.28;1.48;;;10.50;99.90;;;;;;5053524;28;20377;-86
2023/03/30 05:33:40;;;;;;;4.15;1.25;;;10.50;99.90;;;;;;5047073;28;20419;-84
2023/03/30 05:36:09;;;;;;;3.15;1.50;;;10.50;99.90;;;;;;5043362;28;20112;-84
2023/03/30 05:38:37;;;;;;;4.60;1.95;;;10.40;99.90;;;;;;5032601;28;20044;-85
2023/03/30 05:41:05;;;;;;;6.13;2.00;;;10.30;99.90;;;;;;5060078;28;20786;-84
2023/03/30 05:43:32;;;;;;;7.15;2.00;;;10.30;99.90;;;;;;5064948;28;20052;-85
2023/03/30 05:46:01;;;;;;;3.67;1.50;;;10.30;99.90;;;;;;5033348;28;20048;-84
2023/03/30 05:48:29;;;;;;;3.50;1.35;;;10.30;99.90;;;;;;5049272;28;20044;-83
2023/03/30 05:50:56;;;;;;;4.60;1.92;;;10.30;99.90;;;;;;5050477;28;20054;-86
2023/03/30 05:53:23;;;;;;;7.53;2.90;;;10.40;99.90;;;;;;5009324;28;20151;-84
2023/03/30 05:55:50;;;;;;;5.75;2.08;;;10.40;99.90;;;;;;5049250;28;20067;-85
2023/03/30 05:58:17;;;;;;;6.60;2.33;;;10.50;99.90;;;;;;5021560;28;20128;-86
2023/03/30 06:00:45;;;;;;;6.55;2.20;;;10.60;99.90;;;;;;5023675;28;20742;-85
2023/03/30 06:03:12;;;;;;;8.05;2.30;;;10.60;99.90;;;;;;5049069;28;20053;-86
2023/03/30 06:05:40;;;;;;;5.38;2.10;;;10.70;99.90;;;;;;5018200;28;20089;-87
2023/03/30 06:08:08;;;;;;;4.78;1.95;;;10.70;99.90;;;;;;5031037;28;20092;-85
2023/03/30 06:10:35;;;;;;;8.85;3.25;;;10.80;99.90;;;;;;5028926;28;20429;-86
2023/03/30 06:13:02;;;;;;;8.65;2.35;;;10.80;99.90;;;;;;5035986;28;20140;-85
2023/03/30 06:15:30;;;;;;;6.90;2.20;;;10.70;99.90;;;;;;5028437;28;20052;-85
2023/03/30 06:17:58;;;;;;;7.97;2.58;;;10.70;99.90;;;;;;5024284;28;20048;-86
2023/03/30 06:20:25;;;;;;;5.93;2.28;;;10.70;99.90;;;;;;5051473;28;20164;-86
2023/03/30 06:22:51;;;;;;;7.40;2.25;;;10.70;99.90;;;;;;5023729;28;20648;-87
2023/03/30 06:25:22;;;;;;;4.32;1.73;;;10.70;99.90;;;;;;5048948;28;20049;-86
2023/03/30 06:27:49;;;;;;;6.10;3.00;;;10.70;99.90;;;;;;5024085;28;20563;-85
2023/03/30 06:30:16;;;;;;;5.63;1.73;;;10.70;99.90;;;;;;5005474;28;20111;-86
2023/03/30 06:32:43;;;;;;;8.35;2.17;;;10.80;99.90;;;;;;5038795;28;20064;-85
2023/03/30 06:35:12;;;;;;;7.78;2.45;;;10.90;99.90;;;;;;5020168;28;20057;-85
2023/03/30 06:37:39;;;;;;;5.88;2.13;;;10.90;99.90;;;;;;5023482;28;20178;-86
2023/03/30 06:40:12;;;;;;;7.35;2.33;;;11.00;99.90;;;;;;5019027;28;20119;-86
2023/03/30 06:42:43;;;;;;;8.13;2.53;;;11.00;99.90;;;;;;5018539;28;20129;-86
2023/03/30 06:45:10;;;;;;;9.70;2.85;;;11.20;99.90;;;;;;5031706;28;20479;-85
2023/03/30 06:47:38;;;;;;;5.55;2.22;;;11.30;99.90;;;;;;5022926;28;20045;-85
2023/03/30 06:50:05;;;;;;;6.57;2.22;;;11.40;99.90;;;;;;5038704;28;20064;-85
2023/03/30 06:52:36;;;;;;;5.78;2.15;;;11.50;99.90;;;;;;5012277;28;20084;-85
2023/03/30 06:55:04;;;;;;;5.57;2.03;;;11.60;99.90;;;;;;5058433;28;20098;-85
2023/03/30 06:57:31;;;;;;;6.88;2.05;;;11.70;99.90;;;;;;5059679;28;20056;-86
2023/03/30 06:59:59;;;;;;;4.43;1.98;;;11.80;99.90;;;;;;5045032;28;20125;-86
2023/03/30 07:02:26;;;;;;;5.93;2.05;;;11.90;99.90;;;;;;5067125;28;20063;-86
2023/03/30 07:04:53;;;;;;;7.07;2.20;;;12.00;99.90;;;;;;5047077;28;20055;-85
2023/03/30 07:07:20;;;;;;;5.85;2.22;;;12.00;99.90;;;;;;5061464;28;20052;-85
2023/03/30 07:09:47;;;;;;;7.20;2.33;;;12.10;99.90;;;;;;5043850;28;20766;-86
2023/03/30 07:12:14;;;;;;;11.75;3.20;;;12.10;99.90;;;;;;5029759;28;20114;-86
2023/03/30 07:14:41;;;;;;;12.15;3.55;;;12.20;99.90;;;;;;5044379;28;20136;-85
2023/03/30 07:17:08;;;;;;;6.07;2.17;;;12.10;99.90;;;;;;5029071;28;20052;-84
2023/03/30 07:19:35;;;;;;;8.18;2.60;;;12.20;99.90;;;;;;5024768;28;20516;-84
2023/03/30 07:22:02;;;;;;;10.30;2.72;;;12.30;99.90;;;;;;5040641;28;20126;-84
2023/03/30 07:24:30;;;;;;;11.02;3.50;;;12.30;99.90;;;;;;5063968;28;20083;-85
2023/03/30 07:26:57;;;;;;;11.30;3.72;;;12.30;99.90;;;;;;5034189;28;20473;-85
2023/03/30 07:29:25;;;;;;;10.82;3.72;;;12.30;99.90;;;;;;5066001;28;20049;-85
2023/03/30 07:31:55;;;;;;;6.47;2.22;;;12.40;99.90;;;;;;5047602;28;20075;-85
2023/03/30 07:34:22;;;;;;;10.27;2.70;;;12.50;99.90;;;;;;5047118;28;20156;-86
2023/03/30 07:36:50;;;;;;;7.90;3.28;;;12.50;99.90;;;;;;5044812;28;20140;-87
2023/03/30 07:39:18;;;;;;;7.30;2.80;;;12.50;99.90;;;;;;5058760;28;20056;-87
2023/03/30 07:41:45;;;;;;;7.78;2.58;;;12.60;99.90;;;;;;5047449;28;20056;-87
2023/03/30 07:44:12;;;;;;;7.25;2.50;;;12.60;99.90;;;;;;5063160;28;20533;-86
2023/03/30 07:46:39;;;;;;;8.68;3.15;;;12.70;99.90;;;;;;5046772;28;20048;-87
2023/03/30 07:49:07;;;;;;;5.95;2.13;;;12.60;99.90;;;;;;5063829;28;20120;-87
2023/03/30 07:51:34;;;;;;;8.43;3.17;;;12.70;99.90;;;;;;5047642;28;20151;-87
2023/03/30 07:54:01;;;;;;;6.85;2.42;;;12.60;99.90;;;;;;5068540;28;20380;-87
2023/03/30 07:56:29;;;;;;;10.40;2.58;;;12.70;99.90;;;;;;5052881;28;20056;-87
2023/03/30 07:58:55;;;;;;;11.30;4.05;;;12.70;99.90;;;;;;5069360;28;20146;-87
2023/03/30 08:01:25;;;;;;;8.48;3.03;;;12.70;99.90;;;;;;5052579;28;20052;-86
2023/03/30 08:03:52;;;;;;;9.25;2.53;;;12.70;99.90;;;;;;5050603;28;20126;-87
2023/03/30 08:06:19;;;;;;;11.63;3.00;;;12.70;99.90;;;;;;5021155;28;20072;-86
2023/03/30 08:08:49;;;;;;;12.07;3.60;;;12.60;99.90;;;;;;5074324;28;20055;-87
2023/03/30 08:11:17;;;;;;;8.68;3.50;;;12.60;99.90;;;;;;5055861;28;20147;-88
2023/03/30 08:13:44;;;;;;;10.55;2.88;;;12.70;99.90;;;;;;5061490;28;20072;-87
2023/03/30 08:16:11;;;;;;;8.48;3.40;;;12.70;99.90;;;;;;5040564;28;20051;-87
2023/03/30 08:18:41;;;;;;;10.00;4.15;;;12.80;99.90;;;;;;5069697;28;20047;-89
2023/03/30 08:21:09;;;;;;;7.38;2.47;;;12.90;99.90;;;;;;5051327;28;20117;-89
2023/03/30 08:23:36;;;;;;;7.80;2.70;;;12.90;99.90;;;;;;5058207;28;20441;-88
2023/03/30 08:26:05;;;;;;;9.07;2.63;;;12.90;99.90;;;;;;5058189;28;20051;-88
2023/03/30 08:28:32;;;;;;;7.90;2.45;;;12.90;99.90;;;;;;5085905;28;20072;-88
2023/03/30 08:31:05;;;;;;;8.95;2.88;;;12.80;99.90;;;;;;5069994;28;20068;-87
2023/03/30 08:33:33;;;;;;;10.15;3.00;;;12.90;99.90;;;;;;5070034;28;20059;-87
2023/03/30 08:36:00;;;;;;;8.80;3.17;;;13.00;99.90;;;;;;5051669;28;20495;-89
2023/03/30 08:38:28;;;;;;;8.57;3.17;;;13.00;99.90;;;;;;5035613;28;20048;-86
2023/03/30 08:40:55;;;;;;;9.18;2.90;;;13.00;99.90;;;;;;5061042;28;20151;-82
2023/03/30 08:43:22;;;;;;;10.65;3.35;;;13.10;99.90;;;;;;5061187;28;20105;-82
2023/03/30 08:45:49;;;;;;;10.23;3.78;;;13.20;99.90;;;;;;5081309;28;20773;-82
2023/03/30 08:48:16;;;;;;;9.77;2.90;;;13.40;99.90;;;;;;5031732;28;20055;-81
2023/03/30 08:50:46;;;;;;;11.15;3.50;;;13.40;99.90;;;;;;5084608;28;20094;-82
2023/03/30 08:53:13;;;;;;;13.75;3.55;;;13.50;99.90;;;;;;5082858;28;20052;-82
2023/03/30 08:55:50;;;;;;;15.50;5.10;;;13.60;99.90;;;;;;5029550;28;20063;-81
2023/03/30 08:58:56;;;;;;;10.68;3.35;;;13.60;99.90;;;;;;5028956;28;20051;-81
2023/03/30 09:01:45;;;;;;;10.45;3.20;;;13.70;99.90;;;;;;5046620;28;20052;-82
2023/03/30 09:04:34;;;;;;;8.60;3.35;;;13.80;99.90;;;;;;5064403;28;20170;-81
2023/03/30 09:07:16;;;;;;;10.60;4.30;;;13.80;99.90;;;;;;5065635;28;20052;-81
2023/03/30 09:09:44;;;;;;;11.98;3.47;;;13.90;99.90;;;;;;5034984;28;20052;-81
2023/03/30 09:12:37;;;;;;;8.00;3.22;;;14.00;99.90;;;;;;5052344;28;20052;-80
2023/03/30 09:15:05;;;;;;;11.93;3.88;;;14.00;99.90;;;;;;5032426;28;20130;-81
2023/03/30 09:17:59;;;;;;;9.38;3.50;;;14.20;99.90;;;;;;5047325;28;20209;-82
2023/03/30 09:20:28;;;;;;;8.68;3.30;;;14.30;99.90;;;;;;5078735;28;20043;-82
2023/03/30 09:23:00;;;;;;;8.75;3.30;;;14.40;99.90;;;;;;5049997;28;20047;-82
2023/03/30 09:25:39;;;;;;;8.85;3.47;;;14.40;99.90;;;;;;5031570;28;20237;-82
2023/03/30 09:28:21;;;;;;;8.20;3.22;;;14.50;99.90;;;;;;5032702;28;20079;-82
2023/03/30 09:30:51;;;;;;;10.10;2.90;;;14.60;99.90;;;;;;5081639;28;20071;-82
2023/03/30 09:33:38;;;;;;;7.18;2.50;;;14.80;99.90;;;;;;5050203;28;20260;-82
2023/03/30 09:37:07;;;;;;;11.55;5.05;;;15.00;99.90;;;;;;5066613;28;20044;-82
2023/03/30 09:39:34;;;;;;;11.95;4.47;;;15.00;99.90;;;;;;5039646;28;20516;-82
2023/03/30 09:42:26;;;;;;;11.18;3.38;;;15.00;99.90;;;;;;5084878;28;20285;-81
2023/03/30 09:45:00;;;;;;;7.65;3.00;;;15.10;99.90;;;;;;5066769;28;20066;-82
2023/03/30 09:47:37;;;;;;;9.88;3.55;;;15.00;99.90;;;;;;5066027;28;20048;-81
2023/03/30 09:50:11;;;;;;;9.85;3.20;;;14.80;99.90;;;;;;5031301;28;20473;-81
2023/03/30 09:52:39;;;;;;;;;;;14.70;99.90;;;;;;5048024;28;20116;-81
2023/03/30 09:55:21;;;;;;;11.48;3.50;;;14.40;99.90;;;;;;5065283;28;20282;-81
2023/03/30 09:57:49;;;;;;;12.13;3.47;;;14.40;99.90;;;;;;5063846;28;20047;-81
2023/03/30 10:00:32;;;;;;;6.13;2.72;;;14.50;99.90;;;;;;5030510;28;20048;-81
2023/03/30 10:03:03;;;;;;;8.77;3.30;;;14.40;99.90;;;;;;5033404;28;20123;-82
2023/03/30 10:05:31;;;;;;;7.43;2.78;;;14.50;99.90;;;;;;5049438;28;20562;-82
2023/03/30 10:08:00;;;;;;;8.57;2.75;;;14.50;99.90;;;;;;5049642;28;20059;-81
2023/03/30 10:10:34;;;;;;;10.07;2.97;;;14.70;99.90;;;;;;5033241;28;20058;-82
2023/03/30 10:13:29;;;;;;;9.23;3.30;;;14.90;99.90;;;;;;5049504;28;20087;-82
2023/03/30 10:16:02;;;;;;;12.38;3.83;;;15.00;99.90;;;;;;5071843;28;20058;-82
2023/03/30 10:18:38;;;;;;;9.18;3.20;;;15.10;99.90;;;;;;5034765;28;20048;-81
2023/03/30 10:21:27;;;;;;;8.38;3.08;;;15.40;99.90;;;;;;5048890;28;20052;-82
2023/03/30 10:24:08;;;;;;;8.27;2.67;;;15.60;99.90;;;;;;5051124;28;20124;-81
2023/03/30 10:26:36;;;;;;;11.57;3.75;;;15.70;99.90;;;;;;5047850;28;20130;-81
2023/03/30 10:29:04;;;;;;;11.88;4.10;;;15.50;99.90;;;;;;5046549;28;20464;-82
2023/03/30 10:31:35;;;;;;;7.82;3.58;;;15.40;99.90;;;;;;5049427;28;20393;-81
2023/03/30 10:34:04;;;;;;;7.43;3.13;;;15.30;99.90;;;;;;5048443;28;20064;-81
2023/03/30 10:36:37;;;;;;;11.25;3.78;;;15.30;99.90;;;;;;5048652;28;20076;-82
2023/03/30 10:39:27;;;;;;;11.20;4.15;;;15.30;99.90;;;;;;5041106;28;20054;-82
2023/03/30 10:41:54;;;;;;;10.75;3.60;;;15.30;99.90;;;;;;5055939;28;20492;-81
2023/03/30 10:44:28;;;;;;;8.00;3.20;;;15.30;99.90;;;;;;5041735;28;20040;-80
2023/03/30 10:47:04;;;;;;;8.60;3.28;;;15.20;99.90;;;;;;5025842;28;20047;-81
2023/03/30 10:49:48;;;;;;;10.05;3.10;;;15.30;99.90;;;;;;5035985;28;20601;-80
2023/03/30 10:52:36;;;;;;;8.55;2.80;;;15.30;99.90;;;;;;5044636;28;20056;-81
2023/03/30 10:55:22;;;;;;;5.93;2.72;;;15.40;99.90;;;;;;5063753;28;20495;-80
2023/03/30 10:58:23;;;;;;;9.27;3.53;;;15.30;99.90;;;;;;5060207;28;20088;-80
2023/03/30 11:01:07;;;;;;;10.20;3.10;;;15.30;99.90;;;;;;5047289;28;20044;-80
2023/03/30 11:03:35;;;;;;;11.07;3.65;;;15.00;99.90;;;;;;5044823;28;20396;-81
2023/03/30 11:06:07;;;;;;;9.70;3.00;;;14.80;99.90;;;;;;5027572;28;20052;-81
2023/03/30 11:09:01;;;;;;;9.77;3.22;;;14.60;99.90;;;;;;5063353;28;20052;-81
2023/03/30 11:11:40;;;;;;;9.48;3.17;;;14.30;99.90;;;;;;5060541;28;20406;-82
2023/03/30 11:14:12;;;;;;;11.02;3.63;;;14.10;99.90;;;;;;5057530;28;20040;-81
2023/03/30 11:16:49;;;;;;;7.45;2.80;;;14.10;99.90;;;;;;5027872;28;20044;-81
2023/03/30 11:19:23;;;;;;;10.32;3.53;;;13.90;99.90;;;;;;5058279;28;20472;-82
2023/03/30 11:22:05;;;;;;;7.25;2.35;;;13.80;99.90;;;;;;5040750;28;20044;-83
2023/03/30 11:24:32;;;;;;;7.00;2.67;;;13.70;99.90;;;;;;5078653;28;20166;-81
2023/03/30 11:27:18;;;;;;;8.20;2.70;;;13.80;99.90;;;;;;5046090;28;20139;-82
2023/03/30 11:29:58;;;;;;;7.57;2.63;;;13.90;99.90;;;;;;5064176;28;20144;-82
2023/03/30 11:32:43;;;;;;;7.45;3.05;;;14.00;99.90;;;;;;5045850;28;20060;-83
2023/03/30 11:35:14;;;;;;;7.70;2.60;;;14.30;99.90;;;;;;5062246;28;20431;-82
2023/03/30 11:37:49;;;;;;;8.27;2.80;;;14.60;99.90;;;;;;5063346;28;20048;-82
2023/03/30 11:40:26;;;;;;;8.63;3.13;;;14.80;99.90;;;;;;5052329;28;20075;-83
2023/03/30 11:42:53;;;;;;;7.90;2.47;;;15.00;99.90;;;;;;5045636;28;20049;-83
2023/03/30 11:45:44;;;;;;;7.93;2.88;;;14.90;99.90;;;;;;5042629;28;20061;-82
2023/03/30 11:48:20;;;;;;;6.20;2.88;;;15.00;99.90;;;;;;5058997;28;20059;-83
2023/03/30 11:51:04;;;;;;;8.48;3.25;;;15.30;99.90;;;;;;5073566;28;20064;-82
2023/03/30 11:53:52;;;;;;;7.78;2.92;;;15.60;99.90;;;;;;5058247;28;20060;-82
2023/03/30 11:56:46;;;;;;;7.10;2.55;;;15.90;99.90;;;;;;5070322;28;20048;-82
2023/03/30 11:59:17;;;;;;;9.13;2.80;;;16.30;99.90;;;;;;5057501;28;20052;-81
2023/03/30 12:02:10;;;;;;;5.38;2.60;;;16.60;99.90;;;;;;5045459;28;20095;-82
2023/03/30 12:04:57;;;;;;;6.82;2.83;;;16.90;99.90;;;;;;5079579;28;20115;-83
2023/03/30 12:08:02;;;;;;;6.85;2.78;;;17.10;99.90;;;;;;5076442;28;20048;-82
2023/03/30 12:10:40;;;;;;;6.95;2.85;;;17.00;99.90;;;;;;5039468;28;20051;-81
2023/03/30 12:13:14;;;;;;;9.00;2.92;;;16.80;99.90;;;;;;5028392;28;20052;-82
2023/03/30 12:16:04;;;;;;;9.80;3.00;;;16.40;99.90;;;;;;5041494;28;20090;-82
2023/03/30 12:18:57;;;;;;;6.40;2.50;;;16.30;99.90;;;;;;5057676;28;20105;-82
2023/03/30 12:21:35;;;;;;;8.05;2.70;;;16.20;99.90;;;;;;5040314;28;20163;-82
2023/03/30 12:24:19;;;;;;;6.35;2.72;;;16.30;99.90;;;;;;5073226;28;20052;-82
2023/03/30 12:26:47;;;;;;;8.90;3.15;;;16.50;99.90;;;;;;5071241;28;20076;-82
2023/03/30 12:29:50;;;;;;;7.85;2.70;;;16.50;99.90;;;;;;5058207;28;20041;-82
2023/03/30 12:32:24;;;;;;;6.22;2.60;;;16.50;99.90;;;;;;5077015;28;20395;-82
2023/03/30 12:34:54;;;;;;;6.38;2.35;;;16.90;99.90;;;;;;5043393;28;20193;-83
2023/03/30 12:37:25;;;;;;;7.25;3.00;;;17.40;99.90;;;;;;5025763;28;20308;-82
2023/03/30 12:39:58;;;;;;;10.15;3.28;;;17.70;99.90;;;;;;5073422;28;20047;-81
2023/03/30 12:42:35;;;;;;;5.78;2.40;;;17.50;99.90;;;;;;5028402;28;20818;-82
2023/03/30 12:45:14;;;;;;;9.20;3.65;;;17.80;99.90;;;;;;5043299;28;20056;-82
2023/03/30 12:47:47;;;;;;;7.93;2.70;;;17.70;99.90;;;;;;5061128;28;20567;-82
2023/03/30 12:50:22;;;;;;;8.27;2.60;;;17.70;99.90;;;;;;5060283;28;20048;-81
2023/03/30 12:52:58;;;;;;;7.03;3.08;;;18.00;99.90;;;;;;5060368;28;20056;-81
2023/03/30 12:55:37;;;;;;;6.57;2.33;;;18.30;99.90;;;;;;5077662;28;20044;-81
2023/03/30 12:58:19;;;;;;;9.07;3.20;;;18.40;99.90;;;;;;5061606;28;20382;-81
2023/03/30 13:01:08;;;;;;;6.55;2.75;;;17.90;99.90;;;;;;5078843;28;20697;-82
2023/03/30 13:03:54;;;;;;;10.43;3.22;;;17.70;99.90;;;;;;5063913;28;20056;-82
2023/03/30 13:06:32;;;;;;;7.88;2.63;;;17.50;99.90;;;;;;5042911;28;20132;-81
2023/03/30 13:09:24;;;;;;;9.50;2.80;;;17.20;99.90;;;;;;5044491;28;20496;-81
2023/03/30 13:11:54;;;;;;;5.63;2.50;;;16.90;99.90;;;;;;5033073;28;20049;-81
2023/03/30 13:14:30;;;;;;;11.10;3.17;;;16.60;99.90;;;;;;5075275;28;20047;-82
2023/03/30 13:16:57;;;;;;;9.88;3.17;;;16.50;99.90;;;;;;5079081;28;20510;-81